sensor_id;sensor_type;location;lat;lon;timestamp;P1;durP1;ratioP1;P2;durP2;ratioP2
26211;SDS011;13951;49.516;6.094;2023-04-24T00:01:53;1.30;;;1.17;;
26211;SDS011;13951;49.516;6.094;2023-04-24T00:04:41;1.27;;;1.13;;
26211;SDS011;13951;49.516;6.094;2023-04-24T00:07:31;2.93;;;1.10;;
26211;SDS011;13951;49.516;6.094;2023-04-24T00:10:18;1.57;;;1.30;;
26211;SDS011;13951;49.516;6.094;2023-04-24T00:13:05;2.03;;;1.37;;
26211;SDS011;13951;49.516;6.094;2023-04-24T00:15:52;2.97;;;2.03;;
26211;SDS011;13951;49.516;6.094;2023-04-24T00:18:39;2.80;;;1.70;;
26211;SDS011;13951;49.516;6.094;2023-04-24T00:21:17;2.97;;;1.80;;
26211;SDS011;13951;49.516;6.094;2023-04-24T00:24:04;3.60;;;2.30;;
26211;SDS011;13951;49.516;6.094;2023-04-24T00:26:41;2.20;;;1.80;;
26211;SDS011;13951;49.516;6.094;2023-04-24T00:29:28;2.00;;;1.80;;
26211;SDS011;13951;49.516;6.094;2023-04-24T00:32:15;2.60;;;1.57;;
26211;SDS011;13951;49.516;6.094;2023-04-24T00:35:05;2.20;;;2.00;;
26211;SDS011;13951;49.516;6.094;2023-04-24T00:37:53;2.53;;;2.03;;
26211;SDS011;13951;49.516;6.094;2023-04-24T00:40:40;4.43;;;2.60;;
26211;SDS011;13951;49.516;6.094;2023-04-24T00:43:27;3.60;;;1.90;;
26211;SDS011;13951;49.516;6.094;2023-04-24T00:46:14;3.40;;;2.50;;
26211;SDS011;13951;49.516;6.094;2023-04-24T00:49:04;2.33;;;2.13;;
26211;SDS011;13951;49.516;6.094;2023-04-24T00:51:52;2.97;;;2.10;;
26211;SDS011;13951;49.516;6.094;2023-04-24T00:54:40;2.97;;;2.30;;
26211;SDS011;13951;49.516;6.094;2023-04-24T00:57:15;4.20;;;2.80;;
26211;SDS011;13951;49.516;6.094;2023-04-24T01:02:50;3.40;;;2.43;;
26211;SDS011;13951;49.516;6.094;2023-04-24T01:05:24;4.33;;;2.37;;
26211;SDS011;13951;49.516;6.094;2023-04-24T01:07:58;3.53;;;2.33;;
26211;SDS011;13951;49.516;6.094;2023-04-24T01:10:32;2.90;;;2.50;;
26211;SDS011;13951;49.516;6.094;2023-04-24T01:13:07;4.53;;;2.87;;
26211;SDS011;13951;49.516;6.094;2023-04-24T01:15:40;3.53;;;3.00;;
26211;SDS011;13951;49.516;6.094;2023-04-24T01:18:13;5.67;;;2.83;;
26211;SDS011;13951;49.516;6.094;2023-04-24T01:20:47;3.97;;;3.03;;
26211;SDS011;13951;49.516;6.094;2023-04-24T01:23:23;5.23;;;2.80;;
26211;SDS011;13951;49.516;6.094;2023-04-24T01:25:56;4.33;;;3.00;;
26211;SDS011;13951;49.516;6.094;2023-04-24T01:28:30;3.40;;;2.70;;
26211;SDS011;13951;49.516;6.094;2023-04-24T01:31:03;4.43;;;3.00;;
26211;SDS011;13951;49.516;6.094;2023-04-24T01:33:36;4.17;;;3.00;;
26211;SDS011;13951;49.516;6.094;2023-04-24T01:36:10;3.67;;;2.70;;
26211;SDS011;13951;49.516;6.094;2023-04-24T01:38:44;7.20;;;3.10;;
26211;SDS011;13951;49.516;6.094;2023-04-24T01:41:16;3.50;;;2.83;;
26211;SDS011;13951;49.516;6.094;2023-04-24T01:43:50;3.83;;;3.20;;
26211;SDS011;13951;49.516;6.094;2023-04-24T01:46:24;4.87;;;3.10;;
26211;SDS011;13951;49.516;6.094;2023-04-24T01:48:58;3.90;;;3.07;;
26211;SDS011;13951;49.516;6.094;2023-04-24T01:51:33;5.43;;;3.50;;
26211;SDS011;13951;49.516;6.094;2023-04-24T01:54:08;4.73;;;3.73;;
26211;SDS011;13951;49.516;6.094;2023-04-24T01:56:41;4.80;;;3.90;;
26211;SDS011;13951;49.516;6.094;2023-04-24T01:59:19;7.93;;;3.90;;
26211;SDS011;13951;49.516;6.094;2023-04-24T02:01:53;6.70;;;4.30;;
26211;SDS011;13951;49.516;6.094;2023-04-24T02:04:26;4.87;;;3.53;;
26211;SDS011;13951;49.516;6.094;2023-04-24T02:06:59;6.13;;;3.90;;
26211;SDS011;13951;49.516;6.094;2023-04-24T02:09:32;5.40;;;3.80;;
26211;SDS011;13951;49.516;6.094;2023-04-24T02:12:05;7.97;;;3.77;;
26211;SDS011;13951;49.516;6.094;2023-04-24T02:14:38;5.83;;;3.73;;
26211;SDS011;13951;49.516;6.094;2023-04-24T02:17:10;6.00;;;4.17;;
26211;SDS011;13951;49.516;6.094;2023-04-24T02:19:44;6.37;;;4.03;;
26211;SDS011;13951;49.516;6.094;2023-04-24T02:22:18;5.47;;;3.67;;
26211;SDS011;13951;49.516;6.094;2023-04-24T02:24:51;5.27;;;3.80;;
26211;SDS011;13951;49.516;6.094;2023-04-24T02:27:23;6.17;;;4.03;;
26211;SDS011;13951;49.516;6.094;2023-04-24T02:29:56;7.47;;;4.20;;
26211;SDS011;13951;49.516;6.094;2023-04-24T02:32:29;5.70;;;4.00;;
26211;SDS011;13951;49.516;6.094;2023-04-24T02:35:03;4.67;;;3.37;;
26211;SDS011;13951;49.516;6.094;2023-04-24T02:37:37;7.40;;;4.07;;
26211;SDS011;13951;49.516;6.094;2023-04-24T02:40:10;6.33;;;4.07;;
26211;SDS011;13951;49.516;6.094;2023-04-24T02:42:43;7.37;;;4.23;;
26211;SDS011;13951;49.516;6.094;2023-04-24T02:45:16;5.80;;;4.00;;
26211;SDS011;13951;49.516;6.094;2023-04-24T02:47:49;6.93;;;4.27;;
26211;SDS011;13951;49.516;6.094;2023-04-24T02:50:21;6.37;;;4.30;;
26211;SDS011;13951;49.516;6.094;2023-04-24T02:52:54;7.47;;;4.40;;
26211;SDS011;13951;49.516;6.094;2023-04-24T02:55:27;9.47;;;4.80;;
26211;SDS011;13951;49.516;6.094;2023-04-24T02:58:00;6.53;;;4.33;;
26211;SDS011;13951;49.516;6.094;2023-04-24T03:00:33;5.80;;;4.07;;
26211;SDS011;13951;49.516;6.094;2023-04-24T03:03:06;5.30;;;3.97;;
26211;SDS011;13951;49.516;6.094;2023-04-24T03:05:39;6.83;;;4.20;;
26211;SDS011;13951;49.516;6.094;2023-04-24T03:08:12;6.70;;;4.43;;
26211;SDS011;13951;49.516;6.094;2023-04-24T03:10:47;6.37;;;4.33;;
26211;SDS011;13951;49.516;6.094;2023-04-24T03:13:20;7.20;;;3.57;;
26211;SDS011;13951;49.516;6.094;2023-04-24T03:15:52;4.37;;;3.30;;
26211;SDS011;13951;49.516;6.094;2023-04-24T03:18:26;5.40;;;3.80;;
26211;SDS011;13951;49.516;6.094;2023-04-24T03:20:59;5.53;;;3.77;;
26211;SDS011;13951;49.516;6.094;2023-04-24T03:23:33;3.97;;;2.90;;
26211;SDS011;13951;49.516;6.094;2023-04-24T03:26:09;8.20;;;3.70;;
26211;SDS011;13951;49.516;6.094;2023-04-24T03:28:48;5.57;;;3.43;;
26211;SDS011;13951;49.516;6.094;2023-04-24T03:31:21;5.77;;;4.00;;
26211;SDS011;13951;49.516;6.094;2023-04-24T03:33:54;6.53;;;3.67;;
26211;SDS011;13951;49.516;6.094;2023-04-24T03:36:28;5.53;;;4.13;;
26211;SDS011;13951;49.516;6.094;2023-04-24T03:39:00;7.00;;;3.80;;
26211;SDS011;13951;49.516;6.094;2023-04-24T03:41:38;5.10;;;3.80;;
26211;SDS011;13951;49.516;6.094;2023-04-24T03:44:22;8.45;;;4.90;;
26211;SDS011;13951;49.516;6.094;2023-04-24T03:46:57;7.80;;;4.27;;
26211;SDS011;13951;49.516;6.094;2023-04-24T03:49:31;5.97;;;4.17;;
26211;SDS011;13951;49.516;6.094;2023-04-24T03:52:04;5.20;;;3.70;;
26211;SDS011;13951;49.516;6.094;2023-04-24T03:54:36;4.77;;;3.63;;
26211;SDS011;13951;49.516;6.094;2023-04-24T03:57:10;5.57;;;3.83;;
26211;SDS011;13951;49.516;6.094;2023-04-24T03:59:50;7.13;;;3.80;;
26211;SDS011;13951;49.516;6.094;2023-04-24T04:02:24;4.90;;;3.67;;
26211;SDS011;13951;49.516;6.094;2023-04-24T04:04:58;5.00;;;3.40;;
26211;SDS011;13951;49.516;6.094;2023-04-24T04:07:31;6.13;;;3.77;;
26211;SDS011;13951;49.516;6.094;2023-04-24T04:10:04;4.53;;;3.53;;
26211;SDS011;13951;49.516;6.094;2023-04-24T04:12:41;5.83;;;3.33;;
26211;SDS011;13951;49.516;6.094;2023-04-24T04:15:14;5.13;;;3.30;;
26211;SDS011;13951;49.516;6.094;2023-04-24T04:17:47;4.53;;;3.53;;
26211;SDS011;13951;49.516;6.094;2023-04-24T04:20:20;4.63;;;3.73;;
26211;SDS011;13951;49.516;6.094;2023-04-24T04:22:53;4.70;;;3.60;;
26211;SDS011;13951;49.516;6.094;2023-04-24T04:25:35;5.07;;;2.97;;
26211;SDS011;13951;49.516;6.094;2023-04-24T04:28:07;3.47;;;2.63;;
26211;SDS011;13951;49.516;6.094;2023-04-24T04:30:40;3.70;;;2.77;;
26211;SDS011;13951;49.516;6.094;2023-04-24T04:33:15;3.47;;;2.97;;
26211;SDS011;13951;49.516;6.094;2023-04-24T04:35:49;4.60;;;2.80;;
26211;SDS011;13951;49.516;6.094;2023-04-24T04:38:24;3.70;;;2.80;;
26211;SDS011;13951;49.516;6.094;2023-04-24T04:41:08;4.60;;;3.23;;
26211;SDS011;13951;49.516;6.094;2023-04-24T04:43:42;3.90;;;2.90;;
26211;SDS011;13951;49.516;6.094;2023-04-24T04:46:15;3.93;;;3.00;;
26211;SDS011;13951;49.516;6.094;2023-04-24T04:48:56;5.13;;;3.90;;
26211;SDS011;13951;49.516;6.094;2023-04-24T04:51:29;3.60;;;3.17;;
26211;SDS011;13951;49.516;6.094;2023-04-24T04:54:03;6.00;;;3.23;;
26211;SDS011;13951;49.516;6.094;2023-04-24T04:56:36;4.37;;;3.47;;
26211;SDS011;13951;49.516;6.094;2023-04-24T04:59:12;5.13;;;3.90;;
26211;SDS011;13951;49.516;6.094;2023-04-24T05:01:48;4.37;;;3.10;;
26211;SDS011;13951;49.516;6.094;2023-04-24T05:04:21;4.17;;;3.00;;
26211;SDS011;13951;49.516;6.094;2023-04-24T05:06:54;4.17;;;2.90;;
26211;SDS011;13951;49.516;6.094;2023-04-24T05:09:29;4.10;;;3.20;;
26211;SDS011;13951;49.516;6.094;2023-04-24T05:12:06;8.23;;;3.77;;
26211;SDS011;13951;49.516;6.094;2023-04-24T05:14:47;3.53;;;2.73;;
26211;SDS011;13951;49.516;6.094;2023-04-24T05:17:21;4.70;;;3.10;;
26211;SDS011;13951;49.516;6.094;2023-04-24T05:19:55;3.60;;;2.90;;
26211;SDS011;13951;49.516;6.094;2023-04-24T05:22:29;4.03;;;2.90;;
26211;SDS011;13951;49.516;6.094;2023-04-24T05:25:02;3.63;;;3.00;;
26211;SDS011;13951;49.516;6.094;2023-04-24T05:27:53;4.03;;;2.90;;
26211;SDS011;13951;49.516;6.094;2023-04-24T05:30:28;4.57;;;2.70;;
26211;SDS011;13951;49.516;6.094;2023-04-24T05:33:01;4.57;;;2.30;;
26211;SDS011;13951;49.516;6.094;2023-04-24T05:35:35;3.50;;;2.97;;
26211;SDS011;13951;49.516;6.094;2023-04-24T05:38:08;4.50;;;3.27;;
26211;SDS011;13951;49.516;6.094;2023-04-24T05:40:41;3.83;;;2.93;;
26211;SDS011;13951;49.516;6.094;2023-04-24T05:43:13;5.67;;;2.80;;
26211;SDS011;13951;49.516;6.094;2023-04-24T05:45:47;4.10;;;3.00;;
26211;SDS011;13951;49.516;6.094;2023-04-24T05:48:19;5.17;;;3.17;;
26211;SDS011;13951;49.516;6.094;2023-04-24T05:50:54;4.00;;;2.93;;
26211;SDS011;13951;49.516;6.094;2023-04-24T05:53:28;4.10;;;2.93;;
26211;SDS011;13951;49.516;6.094;2023-04-24T05:56:01;4.17;;;2.97;;
26211;SDS011;13951;49.516;6.094;2023-04-24T05:58:35;4.37;;;3.27;;
26211;SDS011;13951;49.516;6.094;2023-04-24T06:01:08;3.20;;;2.50;;
26211;SDS011;13951;49.516;6.094;2023-04-24T06:03:43;4.65;;;3.40;;
26211;SDS011;13951;49.516;6.094;2023-04-24T06:06:16;3.77;;;2.93;;
26211;SDS011;13951;49.516;6.094;2023-04-24T06:08:49;4.47;;;3.17;;
26211;SDS011;13951;49.516;6.094;2023-04-24T06:11:22;7.17;;;3.67;;
26211;SDS011;13951;49.516;6.094;2023-04-24T06:13:55;6.67;;;3.37;;
26211;SDS011;13951;49.516;6.094;2023-04-24T06:16:48;7.83;;;3.60;;
26211;SDS011;13951;49.516;6.094;2023-04-24T06:19:35;7.57;;;3.10;;
26211;SDS011;13951;49.516;6.094;2023-04-24T06:22:09;5.13;;;3.10;;
26211;SDS011;13951;49.516;6.094;2023-04-24T06:24:43;6.00;;;4.10;;
26211;SDS011;13951;49.516;6.094;2023-04-24T06:27:16;5.23;;;3.63;;
26211;SDS011;13951;49.516;6.094;2023-04-24T06:29:49;5.30;;;3.67;;
26211;SDS011;13951;49.516;6.094;2023-04-24T06:32:26;10.37;;;4.60;;
26211;SDS011;13951;49.516;6.094;2023-04-24T06:35:00;7.70;;;4.57;;
26211;SDS011;13951;49.516;6.094;2023-04-24T06:37:33;6.10;;;4.10;;
26211;SDS011;13951;49.516;6.094;2023-04-24T06:40:06;7.97;;;4.30;;
26211;SDS011;13951;49.516;6.094;2023-04-24T06:42:40;6.80;;;4.07;;
26211;SDS011;13951;49.516;6.094;2023-04-24T06:45:13;4.43;;;3.57;;
26211;SDS011;13951;49.516;6.094;2023-04-24T06:47:46;5.53;;;3.70;;
26211;SDS011;13951;49.516;6.094;2023-04-24T06:50:19;5.97;;;3.70;;
26211;SDS011;13951;49.516;6.094;2023-04-24T06:52:52;6.27;;;3.73;;
26211;SDS011;13951;49.516;6.094;2023-04-24T06:55:25;5.87;;;4.03;;
26211;SDS011;13951;49.516;6.094;2023-04-24T06:57:58;6.97;;;4.03;;
26211;SDS011;13951;49.516;6.094;2023-04-24T07:00:31;5.17;;;3.80;;
26211;SDS011;13951;49.516;6.094;2023-04-24T07:03:04;4.07;;;2.77;;
26211;SDS011;13951;49.516;6.094;2023-04-24T07:05:38;6.20;;;4.10;;
26211;SDS011;13951;49.516;6.094;2023-04-24T07:08:11;6.43;;;3.40;;
26211;SDS011;13951;49.516;6.094;2023-04-24T07:10:44;4.97;;;3.13;;
26211;SDS011;13951;49.516;6.094;2023-04-24T07:13:17;3.87;;;2.87;;
26211;SDS011;13951;49.516;6.094;2023-04-24T07:15:50;3.80;;;2.73;;
26211;SDS011;13951;49.516;6.094;2023-04-24T07:18:25;4.13;;;3.10;;
26211;SDS011;13951;49.516;6.094;2023-04-24T07:20:58;5.07;;;2.90;;
26211;SDS011;13951;49.516;6.094;2023-04-24T07:23:31;3.00;;;2.47;;
26211;SDS011;13951;49.516;6.094;2023-04-24T07:26:04;4.07;;;3.03;;
26211;SDS011;13951;49.516;6.094;2023-04-24T07:28:37;4.40;;;3.07;;
26211;SDS011;13951;49.516;6.094;2023-04-24T07:31:10;5.50;;;3.03;;
26211;SDS011;13951;49.516;6.094;2023-04-24T07:33:44;4.93;;;3.57;;
26211;SDS011;13951;49.516;6.094;2023-04-24T07:36:17;5.33;;;3.17;;
26211;SDS011;13951;49.516;6.094;2023-04-24T07:38:51;5.80;;;3.53;;
26211;SDS011;13951;49.516;6.094;2023-04-24T07:41:24;9.80;;;3.87;;
26211;SDS011;13951;49.516;6.094;2023-04-24T07:43:58;5.73;;;3.63;;
26211;SDS011;13951;49.516;6.094;2023-04-24T07:46:31;5.60;;;3.80;;
26211;SDS011;13951;49.516;6.094;2023-04-24T07:49:04;4.77;;;3.30;;
26211;SDS011;13951;49.516;6.094;2023-04-24T07:51:45;4.83;;;3.77;;
26211;SDS011;13951;49.516;6.094;2023-04-24T07:54:18;4.83;;;3.67;;
26211;SDS011;13951;49.516;6.094;2023-04-24T07:56:51;4.93;;;3.60;;
26211;SDS011;13951;49.516;6.094;2023-04-24T07:59:24;5.27;;;3.83;;
26211;SDS011;13951;49.516;6.094;2023-04-24T08:01:57;6.53;;;4.20;;
26211;SDS011;13951;49.516;6.094;2023-04-24T08:04:30;5.53;;;3.60;;
26211;SDS011;13951;49.516;6.094;2023-04-24T08:07:03;5.70;;;4.03;;
26211;SDS011;13951;49.516;6.094;2023-04-24T08:09:36;7.47;;;4.53;;
26211;SDS011;13951;49.516;6.094;2023-04-24T08:12:09;8.07;;;4.82;;
26211;SDS011;13951;49.516;6.094;2023-04-24T08:14:42;5.97;;;3.90;;
26211;SDS011;13951;49.516;6.094;2023-04-24T08:17:16;7.17;;;4.30;;
26211;SDS011;13951;49.516;6.094;2023-04-24T08:19:49;6.97;;;4.50;;
26211;SDS011;13951;49.516;6.094;2023-04-24T08:22:23;6.03;;;4.00;;
26211;SDS011;13951;49.516;6.094;2023-04-24T08:24:56;6.10;;;4.00;;
26211;SDS011;13951;49.516;6.094;2023-04-24T08:27:32;6.80;;;3.77;;
26211;SDS011;13951;49.516;6.094;2023-04-24T08:30:05;7.27;;;4.10;;
26211;SDS011;13951;49.516;6.094;2023-04-24T08:32:39;7.00;;;3.97;;
26211;SDS011;13951;49.516;6.094;2023-04-24T08:35:12;6.40;;;3.60;;
26211;SDS011;13951;49.516;6.094;2023-04-24T08:37:45;5.90;;;4.00;;
26211;SDS011;13951;49.516;6.094;2023-04-24T08:40:18;5.00;;;3.87;;
26211;SDS011;13951;49.516;6.094;2023-04-24T08:42:56;7.57;;;4.37;;
26211;SDS011;13951;49.516;6.094;2023-04-24T08:45:31;8.23;;;3.87;;
26211;SDS011;13951;49.516;6.094;2023-04-24T08:48:05;7.00;;;4.17;;
26211;SDS011;13951;49.516;6.094;2023-04-24T08:50:48;6.57;;;4.00;;
26211;SDS011;13951;49.516;6.094;2023-04-24T08:53:23;6.07;;;3.90;;
26211;SDS011;13951;49.516;6.094;2023-04-24T08:55:57;5.53;;;4.10;;
26211;SDS011;13951;49.516;6.094;2023-04-24T08:58:31;6.73;;;4.00;;
26211;SDS011;13951;49.516;6.094;2023-04-24T09:01:04;9.07;;;4.43;;
26211;SDS011;13951;49.516;6.094;2023-04-24T09:03:37;7.87;;;4.90;;
26211;SDS011;13951;49.516;6.094;2023-04-24T09:06:11;7.63;;;4.97;;
26211;SDS011;13951;49.516;6.094;2023-04-24T09:08:45;6.53;;;4.17;;
26211;SDS011;13951;49.516;6.094;2023-04-24T09:11:18;9.50;;;4.67;;
26211;SDS011;13951;49.516;6.094;2023-04-24T09:13:53;7.20;;;4.27;;
26211;SDS011;13951;49.516;6.094;2023-04-24T09:16:26;8.30;;;4.20;;
26211;SDS011;13951;49.516;6.094;2023-04-24T09:19:00;6.53;;;3.80;;
26211;SDS011;13951;49.516;6.094;2023-04-24T09:21:33;7.33;;;3.87;;
26211;SDS011;13951;49.516;6.094;2023-04-24T09:24:08;8.03;;;4.20;;
26211;SDS011;13951;49.516;6.094;2023-04-24T09:26:57;7.63;;;3.63;;
26211;SDS011;13951;49.516;6.094;2023-04-24T09:29:33;7.00;;;3.87;;
26211;SDS011;13951;49.516;6.094;2023-04-24T09:32:19;6.17;;;4.03;;
26211;SDS011;13951;49.516;6.094;2023-04-24T09:37:45;7.53;;;3.57;;
26211;SDS011;13951;49.516;6.094;2023-04-24T09:40:19;6.30;;;4.13;;
26211;SDS011;13951;49.516;6.094;2023-04-24T09:42:55;6.03;;;3.90;;
26211;SDS011;13951;49.516;6.094;2023-04-24T09:45:35;7.57;;;4.30;;
26211;SDS011;13951;49.516;6.094;2023-04-24T09:48:09;6.03;;;3.83;;
26211;SDS011;13951;49.516;6.094;2023-04-24T09:50:45;7.13;;;4.10;;
26211;SDS011;13951;49.516;6.094;2023-04-24T09:53:19;5.87;;;4.00;;
26211;SDS011;13951;49.516;6.094;2023-04-24T09:56:06;4.87;;;3.67;;
26211;SDS011;13951;49.516;6.094;2023-04-24T09:58:40;6.03;;;4.40;;
26211;SDS011;13951;49.516;6.094;2023-04-24T10:01:13;8.43;;;4.57;;
26211;SDS011;13951;49.516;6.094;2023-04-24T10:03:46;6.97;;;4.27;;
26211;SDS011;13951;49.516;6.094;2023-04-24T10:06:19;5.83;;;4.07;;
26211;SDS011;13951;49.516;6.094;2023-04-24T10:08:52;8.00;;;4.53;;
26211;SDS011;13951;49.516;6.094;2023-04-24T10:11:26;8.43;;;4.40;;
26211;SDS011;13951;49.516;6.094;2023-04-24T10:14:00;9.60;;;4.67;;
26211;SDS011;13951;49.516;6.094;2023-04-24T10:16:33;6.90;;;4.33;;
26211;SDS011;13951;49.516;6.094;2023-04-24T10:19:07;7.20;;;3.97;;
26211;SDS011;13951;49.516;6.094;2023-04-24T10:21:41;6.70;;;3.93;;
26211;SDS011;13951;49.516;6.094;2023-04-24T10:24:18;7.03;;;4.13;;
26211;SDS011;13951;49.516;6.094;2023-04-24T10:26:55;5.53;;;3.80;;
26211;SDS011;13951;49.516;6.094;2023-04-24T10:29:29;4.47;;;3.47;;
26211;SDS011;13951;49.516;6.094;2023-04-24T10:32:06;6.60;;;3.73;;
26211;SDS011;13951;49.516;6.094;2023-04-24T10:34:39;5.87;;;3.80;;
26211;SDS011;13951;49.516;6.094;2023-04-24T10:37:12;5.00;;;3.50;;
26211;SDS011;13951;49.516;6.094;2023-04-24T10:39:49;5.93;;;3.77;;
26211;SDS011;13951;49.516;6.094;2023-04-24T10:42:23;6.83;;;3.57;;
26211;SDS011;13951;49.516;6.094;2023-04-24T10:45:04;7.03;;;4.20;;
26211;SDS011;13951;49.516;6.094;2023-04-24T10:47:41;5.87;;;3.80;;
26211;SDS011;13951;49.516;6.094;2023-04-24T10:50:14;5.90;;;4.00;;
26211;SDS011;13951;49.516;6.094;2023-04-24T10:52:48;7.13;;;4.23;;
26211;SDS011;13951;49.516;6.094;2023-04-24T10:55:39;6.53;;;3.87;;
26211;SDS011;13951;49.516;6.094;2023-04-24T10:58:24;5.20;;;3.70;;
26211;SDS011;13951;49.516;6.094;2023-04-24T11:01:07;12.73;;;6.90;;
26211;SDS011;13951;49.516;6.094;2023-04-24T11:03:40;7.37;;;4.97;;
26211;SDS011;13951;49.516;6.094;2023-04-24T11:06:33;7.43;;;3.97;;
26211;SDS011;13951;49.516;6.094;2023-04-24T11:09:10;4.93;;;4.07;;
26211;SDS011;13951;49.516;6.094;2023-04-24T11:11:47;5.27;;;3.83;;
26211;SDS011;13951;49.516;6.094;2023-04-24T11:14:20;6.80;;;4.03;;
26211;SDS011;13951;49.516;6.094;2023-04-24T11:16:54;6.43;;;4.27;;
26211;SDS011;13951;49.516;6.094;2023-04-24T11:19:27;7.07;;;4.03;;
26211;SDS011;13951;49.516;6.094;2023-04-24T11:27:13;6.82;;;4.18;;
26211;SDS011;13951;49.516;6.094;2023-04-24T11:35:27;4.90;;;3.40;;
26211;SDS011;13951;49.516;6.094;2023-04-24T11:38:02;6.90;;;3.63;;
26211;SDS011;13951;49.516;6.094;2023-04-24T11:40:39;10.17;;;3.93;;
26211;SDS011;13951;49.516;6.094;2023-04-24T11:43:13;6.43;;;3.93;;
26211;SDS011;13951;49.516;6.094;2023-04-24T11:45:48;4.73;;;3.33;;
26211;SDS011;13951;49.516;6.094;2023-04-24T11:48:22;6.73;;;3.83;;
26211;SDS011;13951;49.516;6.094;2023-04-24T11:50:57;5.33;;;3.50;;
26211;SDS011;13951;49.516;6.094;2023-04-24T11:53:34;4.87;;;3.53;;
26211;SDS011;13951;49.516;6.094;2023-04-24T11:56:10;5.90;;;3.63;;
26211;SDS011;13951;49.516;6.094;2023-04-24T11:58:44;6.93;;;3.67;;
26211;SDS011;13951;49.516;6.094;2023-04-24T12:01:17;6.20;;;4.10;;
26211;SDS011;13951;49.516;6.094;2023-04-24T12:03:50;5.53;;;4.07;;
26211;SDS011;13951;49.516;6.094;2023-04-24T12:06:32;5.33;;;3.70;;
26211;SDS011;13951;49.516;6.094;2023-04-24T12:09:05;4.60;;;3.60;;
26211;SDS011;13951;49.516;6.094;2023-04-24T12:11:53;7.07;;;3.80;;
26211;SDS011;13951;49.516;6.094;2023-04-24T12:14:29;5.53;;;3.90;;
26211;SDS011;13951;49.516;6.094;2023-04-24T12:17:02;6.47;;;4.33;;
26211;SDS011;13951;49.516;6.094;2023-04-24T12:19:36;5.70;;;4.07;;
26211;SDS011;13951;49.516;6.094;2023-04-24T12:22:09;5.50;;;3.87;;
26211;SDS011;13951;49.516;6.094;2023-04-24T12:25:02;4.60;;;3.20;;
26211;SDS011;13951;49.516;6.094;2023-04-24T12:27:37;6.20;;;4.03;;
26211;SDS011;13951;49.516;6.094;2023-04-24T12:30:14;6.28;;;4.15;;
26211;SDS011;13951;49.516;6.094;2023-04-24T12:32:48;5.97;;;4.00;;
26211;SDS011;13951;49.516;6.094;2023-04-24T12:35:23;4.90;;;3.67;;
26211;SDS011;13951;49.516;6.094;2023-04-24T12:38:10;7.43;;;4.17;;
26211;SDS011;13951;49.516;6.094;2023-04-24T12:40:45;6.20;;;3.77;;
26211;SDS011;13951;49.516;6.094;2023-04-24T12:43:19;6.57;;;3.80;;
26211;SDS011;13951;49.516;6.094;2023-04-24T12:45:52;5.80;;;3.87;;
26211;SDS011;13951;49.516;6.094;2023-04-24T12:48:28;5.10;;;3.83;;
26211;SDS011;13951;49.516;6.094;2023-04-24T12:51:02;5.63;;;3.70;;
26211;SDS011;13951;49.516;6.094;2023-04-24T12:53:35;7.83;;;4.17;;
26211;SDS011;13951;49.516;6.094;2023-04-24T12:56:09;7.63;;;4.03;;
26211;SDS011;13951;49.516;6.094;2023-04-24T12:58:42;5.73;;;3.63;;
26211;SDS011;13951;49.516;6.094;2023-04-24T13:01:15;4.87;;;3.80;;
26211;SDS011;13951;49.516;6.094;2023-04-24T13:03:48;5.93;;;4.23;;
26211;SDS011;13951;49.516;6.094;2023-04-24T13:06:21;6.70;;;3.70;;
26211;SDS011;13951;49.516;6.094;2023-04-24T13:08:54;6.07;;;4.33;;
26211;SDS011;13951;49.516;6.094;2023-04-24T13:11:30;7.13;;;3.53;;
26211;SDS011;13951;49.516;6.094;2023-04-24T13:14:03;4.13;;;3.00;;
26211;SDS011;13951;49.516;6.094;2023-04-24T13:16:35;4.33;;;2.20;;
26211;SDS011;13951;49.516;6.094;2023-04-24T13:19:08;2.73;;;2.30;;
26211;SDS011;13951;49.516;6.094;2023-04-24T13:21:41;2.63;;;1.93;;
26211;SDS011;13951;49.516;6.094;2023-04-24T13:24:14;2.67;;;2.10;;
26211;SDS011;13951;49.516;6.094;2023-04-24T13:26:48;3.23;;;2.40;;
26211;SDS011;13951;49.516;6.094;2023-04-24T13:29:21;4.97;;;2.67;;
26211;SDS011;13951;49.516;6.094;2023-04-24T13:31:54;4.13;;;2.90;;
26211;SDS011;13951;49.516;6.094;2023-04-24T13:34:28;5.17;;;2.90;;
26211;SDS011;13951;49.516;6.094;2023-04-24T13:37:01;4.93;;;3.10;;
26211;SDS011;13951;49.516;6.094;2023-04-24T13:39:36;6.17;;;3.10;;
26211;SDS011;13951;49.516;6.094;2023-04-24T13:42:09;3.03;;;2.57;;
26211;SDS011;13951;49.516;6.094;2023-04-24T13:44:43;8.30;;;3.17;;
26211;SDS011;13951;49.516;6.094;2023-04-24T13:47:16;4.27;;;3.10;;
26211;SDS011;13951;49.516;6.094;2023-04-24T13:49:49;4.17;;;3.10;;
26211;SDS011;13951;49.516;6.094;2023-04-24T13:52:22;5.03;;;2.80;;
26211;SDS011;13951;49.516;6.094;2023-04-24T13:54:55;4.43;;;3.17;;
26211;SDS011;13951;49.516;6.094;2023-04-24T13:57:28;3.97;;;2.40;;
26211;SDS011;13951;49.516;6.094;2023-04-24T14:00:01;3.30;;;2.30;;
26211;SDS011;13951;49.516;6.094;2023-04-24T14:02:38;4.53;;;2.13;;
26211;SDS011;13951;49.516;6.094;2023-04-24T14:05:12;2.53;;;2.03;;
26211;SDS011;13951;49.516;6.094;2023-04-24T14:07:48;3.63;;;2.13;;
26211;SDS011;13951;49.516;6.094;2023-04-24T14:10:21;2.80;;;2.43;;
26211;SDS011;13951;49.516;6.094;2023-04-24T14:12:54;3.37;;;2.33;;
26211;SDS011;13951;49.516;6.094;2023-04-24T14:15:28;7.83;;;2.47;;
26211;SDS011;13951;49.516;6.094;2023-04-24T14:18:01;3.63;;;2.50;;
26211;SDS011;13951;49.516;6.094;2023-04-24T14:20:37;3.77;;;2.50;;
26211;SDS011;13951;49.516;6.094;2023-04-24T14:23:11;4.40;;;2.47;;
26211;SDS011;13951;49.516;6.094;2023-04-24T14:25:44;12.50;;;7.33;;
26211;SDS011;13951;49.516;6.094;2023-04-24T14:28:18;6.23;;;3.93;;
26211;SDS011;13951;49.516;6.094;2023-04-24T14:30:52;4.50;;;2.50;;
26211;SDS011;13951;49.516;6.094;2023-04-24T14:33:27;4.03;;;2.43;;
26211;SDS011;13951;49.516;6.094;2023-04-24T14:36:00;4.30;;;2.50;;
26211;SDS011;13951;49.516;6.094;2023-04-24T14:38:35;5.13;;;2.47;;
26211;SDS011;13951;49.516;6.094;2023-04-24T14:41:08;2.10;;;1.80;;
26211;SDS011;13951;49.516;6.094;2023-04-24T14:43:45;1.60;;;1.50;;
26211;SDS011;13951;49.516;6.094;2023-04-24T14:46:19;2.00;;;1.80;;
26211;SDS011;13951;49.516;6.094;2023-04-24T14:48:52;1.50;;;1.40;;
26211;SDS011;13951;49.516;6.094;2023-04-24T14:51:25;1.57;;;1.40;;
26211;SDS011;13951;49.516;6.094;2023-04-24T14:53:59;1.13;;;1.03;;
26211;SDS011;13951;49.516;6.094;2023-04-24T14:56:32;1.37;;;0.93;;
26211;SDS011;13951;49.516;6.094;2023-04-24T14:59:06;0.90;;;0.90;;
26211;SDS011;13951;49.516;6.094;2023-04-24T15:01:39;2.97;;;1.10;;
26211;SDS011;13951;49.516;6.094;2023-04-24T15:04:12;11.67;;;6.67;;
26211;SDS011;13951;49.516;6.094;2023-04-24T15:06:48;23.90;;;13.30;;
26211;SDS011;13951;49.516;6.094;2023-04-24T15:09:23;1.50;;;1.40;;
26211;SDS011;13951;49.516;6.094;2023-04-24T15:11:57;1.50;;;1.17;;
26211;SDS011;13951;49.516;6.094;2023-04-24T15:14:30;1.03;;;0.90;;
26211;SDS011;13951;49.516;6.094;2023-04-24T15:17:03;1.87;;;1.10;;
26211;SDS011;13951;49.516;6.094;2023-04-24T15:19:36;1.90;;;1.20;;
26211;SDS011;13951;49.516;6.094;2023-04-24T15:22:09;1.10;;;1.00;;
26211;SDS011;13951;49.516;6.094;2023-04-24T15:24:43;1.40;;;1.30;;
26211;SDS011;13951;49.516;6.094;2023-04-24T15:27:16;1.37;;;1.20;;
26211;SDS011;13951;49.516;6.094;2023-04-24T15:29:50;1.60;;;1.43;;
26211;SDS011;13951;49.516;6.094;2023-04-24T15:32:23;2.57;;;1.43;;
26211;SDS011;13951;49.516;6.094;2023-04-24T15:34:59;4.60;;;1.60;;
26211;SDS011;13951;49.516;6.094;2023-04-24T15:37:40;2.33;;;1.80;;
26211;SDS011;13951;49.516;6.094;2023-04-24T15:40:14;2.47;;;1.90;;
26211;SDS011;13951;49.516;6.094;2023-04-24T15:42:48;3.37;;;2.10;;
26211;SDS011;13951;49.516;6.094;2023-04-24T15:45:21;4.03;;;2.30;;
26211;SDS011;13951;49.516;6.094;2023-04-24T15:47:54;3.47;;;2.37;;
26211;SDS011;13951;49.516;6.094;2023-04-24T15:50:28;3.67;;;2.30;;
26211;SDS011;13951;49.516;6.094;2023-04-24T15:53:01;3.13;;;2.63;;